sensor_id;sensor_type;location;lat;lon;timestamp;P1;durP1;ratioP1;P2;durP2;ratioP2
35795;SDS011;21916;52.428;13.302;2022-12-17T00:01:51;111.30;;;46.05;;
35795;SDS011;21916;52.428;13.302;2022-12-17T00:04:36;108.57;;;45.15;;
35795;SDS011;21916;52.428;13.302;2022-12-17T00:07:20;114.45;;;45.47;;
35795;SDS011;21916;52.428;13.302;2022-12-17T00:10:04;107.43;;;42.58;;
35795;SDS011;21916;52.428;13.302;2022-12-17T00:12:49;101.97;;;46.05;;
35795;SDS011;21916;52.428;13.302;2022-12-17T00:15:34;106.68;;;44.45;;
35795;SDS011;21916;52.428;13.302;2022-12-17T00:18:19;105.53;;;46.25;;
35795;SDS011;21916;52.428;13.302;2022-12-17T00:21:03;113.60;;;47.45;;
35795;SDS011;21916;52.428;13.302;2022-12-17T00:23:48;113.30;;;47.00;;
35795;SDS011;21916;52.428;13.302;2022-12-17T00:26:34;112.95;;;48.17;;
35795;SDS011;21916;52.428;13.302;2022-12-17T00:29:19;103.00;;;45.00;;
35795;SDS011;21916;52.428;13.302;2022-12-17T00:32:04;103.80;;;43.28;;
35795;SDS011;21916;52.428;13.302;2022-12-17T00:34:49;96.22;;;42.38;;
35795;SDS011;21916;52.428;13.302;2022-12-17T00:37:34;101.53;;;43.83;;
35795;SDS011;21916;52.428;13.302;2022-12-17T00:40:23;101.30;;;41.58;;
35795;SDS011;21916;52.428;13.302;2022-12-17T00:43:09;99.53;;;43.95;;
35795;SDS011;21916;52.428;13.302;2022-12-17T00:46:13;107.47;;;43.35;;
35795;SDS011;21916;52.428;13.302;2022-12-17T00:48:57;96.45;;;42.13;;
35795;SDS011;21916;52.428;13.302;2022-12-17T00:51:42;100.80;;;43.50;;
35795;SDS011;21916;52.428;13.302;2022-12-17T00:54:26;95.70;;;41.03;;
35795;SDS011;21916;52.428;13.302;2022-12-17T00:57:11;95.93;;;40.13;;
35795;SDS011;21916;52.428;13.302;2022-12-17T00:59:55;94.32;;;40.47;;
35795;SDS011;21916;52.428;13.302;2022-12-17T01:02:50;92.90;;;41.58;;
35795;SDS011;21916;52.428;13.302;2022-12-17T01:05:36;102.90;;;41.50;;
35795;SDS011;21916;52.428;13.302;2022-12-17T01:08:21;95.70;;;40.13;;
35795;SDS011;21916;52.428;13.302;2022-12-17T01:11:06;94.80;;;41.38;;
35795;SDS011;21916;52.428;13.302;2022-12-17T01:13:52;95.60;;;40.10;;
35795;SDS011;21916;52.428;13.302;2022-12-17T01:16:36;103.80;;;40.65;;
35795;SDS011;21916;52.428;13.302;2022-12-17T01:19:21;100.18;;;42.03;;
35795;SDS011;21916;52.428;13.302;2022-12-17T01:22:05;99.22;;;41.72;;
35795;SDS011;21916;52.428;13.302;2022-12-17T01:24:49;95.22;;;40.10;;
35795;SDS011;21916;52.428;13.302;2022-12-17T01:27:34;94.20;;;39.20;;
35795;SDS011;21916;52.428;13.302;2022-12-17T01:30:18;98.40;;;41.00;;
35795;SDS011;21916;52.428;13.302;2022-12-17T01:33:03;98.95;;;40.92;;
35795;SDS011;21916;52.428;13.302;2022-12-17T01:35:48;104.05;;;42.00;;
35795;SDS011;21916;52.428;13.302;2022-12-17T01:38:33;111.45;;;41.05;;
35795;SDS011;21916;52.428;13.302;2022-12-17T01:41:17;111.45;;;43.13;;
35795;SDS011;21916;52.428;13.302;2022-12-17T01:47:24;118.20;;;41.33;;
35795;SDS011;21916;52.428;13.302;2022-12-17T01:50:14;131.98;;;43.78;;
35795;SDS011;21916;52.428;13.302;2022-12-17T01:53:01;121.07;;;44.10;;
35795;SDS011;21916;52.428;13.302;2022-12-17T01:55:52;125.63;;;43.25;;
35795;SDS011;21916;52.428;13.302;2022-12-17T01:58:38;106.78;;;40.30;;
35795;SDS011;21916;52.428;13.302;2022-12-17T02:01:23;98.35;;;36.72;;
35795;SDS011;21916;52.428;13.302;2022-12-17T02:04:08;107.90;;;40.08;;
35795;SDS011;21916;52.428;13.302;2022-12-17T02:06:58;108.00;;;38.83;;
35795;SDS011;21916;52.428;13.302;2022-12-17T02:13:20;118.30;;;40.25;;
35795;SDS011;21916;52.428;13.302;2022-12-17T02:16:17;111.10;;;36.35;;
35795;SDS011;21916;52.428;13.302;2022-12-17T02:28:35;107.70;;;35.80;;
35795;SDS011;21916;52.428;13.302;2022-12-17T02:31:23;61.55;;;20.08;;
35795;SDS011;21916;52.428;13.302;2022-12-17T02:34:10;63.08;;;20.02;;
35795;SDS011;21916;52.428;13.302;2022-12-17T02:36:54;84.18;;;26.75;;
35795;SDS011;21916;52.428;13.302;2022-12-17T02:39:39;73.38;;;27.95;;
35795;SDS011;21916;52.428;13.302;2022-12-17T02:42:24;85.75;;;27.08;;
35795;SDS011;21916;52.428;13.302;2022-12-17T02:45:12;79.18;;;26.98;;
35795;SDS011;21916;52.428;13.302;2022-12-17T02:47:58;81.22;;;27.92;;
35795;SDS011;21916;52.428;13.302;2022-12-17T02:50:44;82.15;;;28.90;;
35795;SDS011;21916;52.428;13.302;2022-12-17T02:53:31;81.10;;;29.17;;
35795;SDS011;21916;52.428;13.302;2022-12-17T02:56:18;74.40;;;25.42;;
35795;SDS011;21916;52.428;13.302;2022-12-17T02:59:03;62.50;;;23.13;;
35795;SDS011;21916;52.428;13.302;2022-12-17T03:01:48;54.08;;;19.67;;
35795;SDS011;21916;52.428;13.302;2022-12-17T03:04:33;63.22;;;21.67;;
35795;SDS011;21916;52.428;13.302;2022-12-17T03:07:17;74.40;;;24.85;;
35795;SDS011;21916;52.428;13.302;2022-12-17T03:10:02;52.13;;;18.75;;
35795;SDS011;21916;52.428;13.302;2022-12-17T03:12:46;61.13;;;22.58;;
35795;SDS011;21916;52.428;13.302;2022-12-17T03:15:30;67.13;;;24.52;;
35795;SDS011;21916;52.428;13.302;2022-12-17T03:18:15;61.60;;;22.42;;
35795;SDS011;21916;52.428;13.302;2022-12-17T03:20:59;54.78;;;22.40;;
35795;SDS011;21916;52.428;13.302;2022-12-17T03:23:43;59.28;;;19.05;;
35795;SDS011;21916;52.428;13.302;2022-12-17T03:26:28;63.00;;;22.80;;
35795;SDS011;21916;52.428;13.302;2022-12-17T03:29:13;47.58;;;17.95;;
35795;SDS011;21916;52.428;13.302;2022-12-17T03:31:58;40.35;;;15.43;;
35795;SDS011;21916;52.428;13.302;2022-12-17T03:34:42;49.83;;;19.85;;
35795;SDS011;21916;52.428;13.302;2022-12-17T03:37:26;50.17;;;20.98;;
35795;SDS011;21916;52.428;13.302;2022-12-17T03:40:10;58.65;;;22.70;;
35795;SDS011;21916;52.428;13.302;2022-12-17T03:42:54;48.60;;;20.90;;
35795;SDS011;21916;52.428;13.302;2022-12-17T03:45:39;50.03;;;21.08;;
35795;SDS011;21916;52.428;13.302;2022-12-17T03:48:23;47.15;;;19.02;;
35795;SDS011;21916;52.428;13.302;2022-12-17T03:51:08;38.90;;;16.13;;
35795;SDS011;21916;52.428;13.302;2022-12-17T03:53:52;40.92;;;18.08;;
35795;SDS011;21916;52.428;13.302;2022-12-17T03:56:37;49.03;;;16.90;;
35795;SDS011;21916;52.428;13.302;2022-12-17T03:59:21;44.55;;;17.95;;
35795;SDS011;21916;52.428;13.302;2022-12-17T04:02:06;37.40;;;15.30;;
35795;SDS011;21916;52.428;13.302;2022-12-17T04:04:50;42.92;;;17.02;;
35795;SDS011;21916;52.428;13.302;2022-12-17T04:07:37;40.40;;;16.70;;
35795;SDS011;21916;52.428;13.302;2022-12-17T04:10:21;46.67;;;15.73;;
35795;SDS011;21916;52.428;13.302;2022-12-17T04:13:06;43.83;;;15.82;;
35795;SDS011;21916;52.428;13.302;2022-12-17T04:15:50;55.78;;;21.35;;
35795;SDS011;21916;52.428;13.302;2022-12-17T04:18:34;51.30;;;18.52;;
35795;SDS011;21916;52.428;13.302;2022-12-17T04:21:19;53.13;;;19.60;;
35795;SDS011;21916;52.428;13.302;2022-12-17T04:24:03;54.33;;;19.83;;
35795;SDS011;21916;52.428;13.302;2022-12-17T04:26:49;51.30;;;18.40;;
35795;SDS011;21916;52.428;13.302;2022-12-17T04:29:34;49.63;;;19.42;;
35795;SDS011;21916;52.428;13.302;2022-12-17T04:32:18;45.35;;;19.15;;
35795;SDS011;21916;52.428;13.302;2022-12-17T04:35:03;57.33;;;19.55;;
35795;SDS011;21916;52.428;13.302;2022-12-17T04:37:48;56.47;;;22.10;;
35795;SDS011;21916;52.428;13.302;2022-12-17T04:40:32;58.55;;;20.48;;
35795;SDS011;21916;52.428;13.302;2022-12-17T04:43:17;51.03;;;20.35;;
35795;SDS011;21916;52.428;13.302;2022-12-17T04:46:01;55.65;;;20.48;;
35795;SDS011;21916;52.428;13.302;2022-12-17T04:48:46;59.05;;;23.00;;
35795;SDS011;21916;52.428;13.302;2022-12-17T04:51:30;59.00;;;22.00;;
35795;SDS011;21916;52.428;13.302;2022-12-17T04:54:15;50.60;;;20.67;;
35795;SDS011;21916;52.428;13.302;2022-12-17T04:57:00;56.80;;;20.98;;
35795;SDS011;21916;52.428;13.302;2022-12-17T04:59:44;58.35;;;20.75;;
35795;SDS011;21916;52.428;13.302;2022-12-17T05:02:29;57.45;;;21.23;;
35795;SDS011;21916;52.428;13.302;2022-12-17T05:05:14;55.78;;;20.20;;
35795;SDS011;21916;52.428;13.302;2022-12-17T05:07:58;56.30;;;19.20;;
35795;SDS011;21916;52.428;13.302;2022-12-17T05:10:42;55.72;;;20.77;;
35795;SDS011;21916;52.428;13.302;2022-12-17T05:13:27;62.22;;;23.83;;
35795;SDS011;21916;52.428;13.302;2022-12-17T05:16:11;71.68;;;22.08;;
35795;SDS011;21916;52.428;13.302;2022-12-17T05:18:56;62.00;;;21.77;;
35795;SDS011;21916;52.428;13.302;2022-12-17T05:21:40;58.35;;;23.23;;
35795;SDS011;21916;52.428;13.302;2022-12-17T05:24:25;55.85;;;21.25;;
35795;SDS011;21916;52.428;13.302;2022-12-17T05:27:09;58.50;;;21.73;;
35795;SDS011;21916;52.428;13.302;2022-12-17T05:29:54;66.03;;;22.75;;
35795;SDS011;21916;52.428;13.302;2022-12-17T05:32:38;61.53;;;21.92;;
35795;SDS011;21916;52.428;13.302;2022-12-17T05:35:22;61.92;;;22.63;;
35795;SDS011;21916;52.428;13.302;2022-12-17T05:38:08;46.47;;;17.08;;
35795;SDS011;21916;52.428;13.302;2022-12-17T05:40:56;57.90;;;18.98;;
35795;SDS011;21916;52.428;13.302;2022-12-17T05:43:42;51.17;;;17.48;;
35795;SDS011;21916;52.428;13.302;2022-12-17T05:46:26;49.80;;;17.05;;
35795;SDS011;21916;52.428;13.302;2022-12-17T05:49:11;55.50;;;21.17;;
35795;SDS011;21916;52.428;13.302;2022-12-17T05:51:56;61.95;;;21.40;;
35795;SDS011;21916;52.428;13.302;2022-12-17T05:54:40;47.58;;;18.10;;
35795;SDS011;21916;52.428;13.302;2022-12-17T05:57:24;53.90;;;20.42;;
35795;SDS011;21916;52.428;13.302;2022-12-17T06:00:09;53.67;;;19.10;;
35795;SDS011;21916;52.428;13.302;2022-12-17T06:02:58;53.10;;;19.92;;
35795;SDS011;21916;52.428;13.302;2022-12-17T06:05:43;65.15;;;21.20;;
35795;SDS011;21916;52.428;13.302;2022-12-17T06:08:27;55.28;;;20.70;;
35795;SDS011;21916;52.428;13.302;2022-12-17T06:11:12;56.72;;;19.60;;
35795;SDS011;21916;52.428;13.302;2022-12-17T06:13:58;59.03;;;20.60;;
35795;SDS011;21916;52.428;13.302;2022-12-17T06:16:43;45.42;;;16.60;;
35795;SDS011;21916;52.428;13.302;2022-12-17T06:19:27;48.55;;;19.85;;
35795;SDS011;21916;52.428;13.302;2022-12-17T06:22:12;50.08;;;18.60;;
35795;SDS011;21916;52.428;13.302;2022-12-17T06:24:56;54.08;;;21.13;;
35795;SDS011;21916;52.428;13.302;2022-12-17T06:27:40;49.22;;;19.83;;
35795;SDS011;21916;52.428;13.302;2022-12-17T06:30:25;56.10;;;18.73;;
35795;SDS011;21916;52.428;13.302;2022-12-17T06:33:10;49.25;;;17.33;;
35795;SDS011;21916;52.428;13.302;2022-12-17T06:35:56;50.45;;;19.90;;
35795;SDS011;21916;52.428;13.302;2022-12-17T06:38:41;46.70;;;18.13;;
35795;SDS011;21916;52.428;13.302;2022-12-17T06:41:26;37.38;;;14.63;;
35795;SDS011;21916;52.428;13.302;2022-12-17T06:44:10;50.13;;;19.52;;
35795;SDS011;21916;52.428;13.302;2022-12-17T06:46:55;61.20;;;19.85;;
35795;SDS011;21916;52.428;13.302;2022-12-17T06:49:40;46.13;;;18.00;;
35795;SDS011;21916;52.428;13.302;2022-12-17T06:52:24;45.65;;;16.98;;
35795;SDS011;21916;52.428;13.302;2022-12-17T06:55:09;49.25;;;22.20;;
35795;SDS011;21916;52.428;13.302;2022-12-17T06:57:54;38.97;;;17.27;;
35795;SDS011;21916;52.428;13.302;2022-12-17T07:00:43;50.60;;;19.55;;
35795;SDS011;21916;52.428;13.302;2022-12-17T07:03:28;42.90;;;17.38;;
35795;SDS011;21916;52.428;13.302;2022-12-17T07:06:12;37.53;;;16.30;;
35795;SDS011;21916;52.428;13.302;2022-12-17T07:08:56;57.90;;;22.42;;
35795;SDS011;21916;52.428;13.302;2022-12-17T07:11:40;39.30;;;17.40;;
35795;SDS011;21916;52.428;13.302;2022-12-17T07:14:25;46.47;;;18.92;;
35795;SDS011;21916;52.428;13.302;2022-12-17T07:17:09;46.80;;;16.13;;
35795;SDS011;21916;52.428;13.302;2022-12-17T07:19:53;46.85;;;20.35;;
35795;SDS011;21916;52.428;13.302;2022-12-17T07:22:38;44.08;;;19.45;;
35795;SDS011;21916;52.428;13.302;2022-12-17T07:25:22;48.22;;;20.08;;
35795;SDS011;21916;52.428;13.302;2022-12-17T07:28:07;48.03;;;20.25;;
35795;SDS011;21916;52.428;13.302;2022-12-17T07:30:52;48.80;;;20.98;;
35795;SDS011;21916;52.428;13.302;2022-12-17T07:33:38;46.00;;;21.27;;
35795;SDS011;21916;52.428;13.302;2022-12-17T07:36:22;49.72;;;21.85;;
35795;SDS011;21916;52.428;13.302;2022-12-17T07:39:07;53.42;;;21.63;;
35795;SDS011;21916;52.428;13.302;2022-12-17T07:41:51;49.22;;;21.13;;
35795;SDS011;21916;52.428;13.302;2022-12-17T07:44:36;48.58;;;19.80;;
35795;SDS011;21916;52.428;13.302;2022-12-17T07:47:20;46.60;;;19.45;;
35795;SDS011;21916;52.428;13.302;2022-12-17T07:50:05;43.47;;;20.80;;
35795;SDS011;21916;52.428;13.302;2022-12-17T07:52:59;55.92;;;22.70;;
35795;SDS011;21916;52.428;13.302;2022-12-17T07:55:45;51.05;;;21.77;;
35795;SDS011;21916;52.428;13.302;2022-12-17T07:58:30;47.83;;;20.73;;
35795;SDS011;21916;52.428;13.302;2022-12-17T08:01:14;47.63;;;21.40;;
35795;SDS011;21916;52.428;13.302;2022-12-17T08:03:59;53.50;;;21.17;;
35795;SDS011;21916;52.428;13.302;2022-12-17T08:06:44;41.72;;;17.27;;
35795;SDS011;21916;52.428;13.302;2022-12-17T08:09:28;43.10;;;18.17;;
35795;SDS011;21916;52.428;13.302;2022-12-17T08:12:12;44.47;;;20.05;;
35795;SDS011;21916;52.428;13.302;2022-12-17T08:14:58;45.25;;;19.20;;
35795;SDS011;21916;52.428;13.302;2022-12-17T08:17:43;47.13;;;20.25;;
35795;SDS011;21916;52.428;13.302;2022-12-17T08:20:27;49.95;;;20.83;;
35795;SDS011;21916;52.428;13.302;2022-12-17T08:23:25;50.10;;;21.73;;
35795;SDS011;21916;52.428;13.302;2022-12-17T08:26:10;50.15;;;22.90;;
35795;SDS011;21916;52.428;13.302;2022-12-17T08:28:54;51.65;;;22.55;;
35795;SDS011;21916;52.428;13.302;2022-12-17T08:31:38;52.50;;;22.15;;
35795;SDS011;21916;52.428;13.302;2022-12-17T08:34:23;51.95;;;22.48;;
35795;SDS011;21916;52.428;13.302;2022-12-17T08:37:07;51.08;;;23.50;;
35795;SDS011;21916;52.428;13.302;2022-12-17T08:39:51;49.47;;;21.88;;
35795;SDS011;21916;52.428;13.302;2022-12-17T08:42:36;50.55;;;21.67;;
35795;SDS011;21916;52.428;13.302;2022-12-17T08:45:20;49.08;;;19.75;;
35795;SDS011;21916;52.428;13.302;2022-12-17T08:48:07;48.45;;;21.20;;
35795;SDS011;21916;52.428;13.302;2022-12-17T08:50:52;45.72;;;21.45;;
35795;SDS011;21916;52.428;13.302;2022-12-17T08:53:37;55.78;;;22.88;;
35795;SDS011;21916;52.428;13.302;2022-12-17T08:56:21;56.95;;;23.48;;
35795;SDS011;21916;52.428;13.302;2022-12-17T08:59:06;54.08;;;21.90;;
35795;SDS011;21916;52.428;13.302;2022-12-17T09:01:50;46.58;;;20.70;;
35795;SDS011;21916;52.428;13.302;2022-12-17T09:04:35;46.03;;;18.02;;
35795;SDS011;21916;52.428;13.302;2022-12-17T09:07:19;49.90;;;20.58;;
35795;SDS011;21916;52.428;13.302;2022-12-17T09:10:04;50.03;;;19.02;;
35795;SDS011;21916;52.428;13.302;2022-12-17T09:12:48;46.33;;;19.80;;
35795;SDS011;21916;52.428;13.302;2022-12-17T09:15:33;45.28;;;21.20;;
35795;SDS011;21916;52.428;13.302;2022-12-17T09:18:18;51.88;;;22.30;;
35795;SDS011;21916;52.428;13.302;2022-12-17T09:21:06;54.30;;;22.75;;
35795;SDS011;21916;52.428;13.302;2022-12-17T09:23:50;52.22;;;22.63;;
35795;SDS011;21916;52.428;13.302;2022-12-17T09:26:35;46.35;;;20.55;;
35795;SDS011;21916;52.428;13.302;2022-12-17T09:29:20;47.15;;;18.55;;
35795;SDS011;21916;52.428;13.302;2022-12-17T09:32:04;48.80;;;20.35;;
35795;SDS011;21916;52.428;13.302;2022-12-17T09:34:49;49.10;;;22.90;;
35795;SDS011;21916;52.428;13.302;2022-12-17T09:37:33;52.00;;;23.85;;
35795;SDS011;21916;52.428;13.302;2022-12-17T09:40:19;51.67;;;22.20;;
35795;SDS011;21916;52.428;13.302;2022-12-17T09:43:19;45.90;;;21.15;;
35795;SDS011;21916;52.428;13.302;2022-12-17T09:46:21;51.95;;;20.58;;
35795;SDS011;21916;52.428;13.302;2022-12-17T09:49:17;45.95;;;21.27;;
35795;SDS011;21916;52.428;13.302;2022-12-17T09:52:26;54.28;;;21.17;;
35795;SDS011;21916;52.428;13.302;2022-12-17T09:58:18;51.65;;;22.65;;
35795;SDS011;21916;52.428;13.302;2022-12-17T10:01:04;51.65;;;23.08;;
35795;SDS011;21916;52.428;13.302;2022-12-17T10:03:55;51.97;;;22.52;;
35795;SDS011;21916;52.428;13.302;2022-12-17T10:06:40;49.20;;;22.63;;
35795;SDS011;21916;52.428;13.302;2022-12-17T10:09:24;56.92;;;23.88;;
35795;SDS011;21916;52.428;13.302;2022-12-17T10:12:18;53.83;;;21.77;;
35795;SDS011;21916;52.428;13.302;2022-12-17T10:15:04;58.30;;;23.77;;
35795;SDS011;21916;52.428;13.302;2022-12-17T10:17:49;72.55;;;27.50;;
35795;SDS011;21916;52.428;13.302;2022-12-17T10:23:28;63.40;;;27.92;;
35795;SDS011;21916;52.428;13.302;2022-12-17T10:26:19;61.88;;;23.27;;
35795;SDS011;21916;52.428;13.302;2022-12-17T10:29:09;59.25;;;23.80;;
35795;SDS011;21916;52.428;13.302;2022-12-17T10:32:38;57.90;;;23.77;;
35795;SDS011;21916;52.428;13.302;2022-12-17T10:35:08;62.47;;;25.45;;
35795;SDS011;21916;52.428;13.302;2022-12-17T10:38:20;63.08;;;24.50;;
35795;SDS011;21916;52.428;13.302;2022-12-17T10:41:26;59.30;;;24.55;;
35795;SDS011;21916;52.428;13.302;2022-12-17T10:44:29;60.50;;;24.48;;
35795;SDS011;21916;52.428;13.302;2022-12-17T10:47:18;64.60;;;26.50;;
35795;SDS011;21916;52.428;13.302;2022-12-17T10:50:08;60.38;;;24.73;;
35795;SDS011;21916;52.428;13.302;2022-12-17T10:52:53;60.95;;;25.15;;
35795;SDS011;21916;52.428;13.302;2022-12-17T10:55:46;66.28;;;25.80;;
35795;SDS011;21916;52.428;13.302;2022-12-17T10:58:32;58.88;;;24.67;;
35795;SDS011;21916;52.428;13.302;2022-12-17T11:01:19;59.13;;;25.00;;
35795;SDS011;21916;52.428;13.302;2022-12-17T11:04:20;60.63;;;25.53;;
35795;SDS011;21916;52.428;13.302;2022-12-17T11:07:17;60.83;;;25.48;;
35795;SDS011;21916;52.428;13.302;2022-12-17T11:10:29;57.00;;;22.55;;
35795;SDS011;21916;52.428;13.302;2022-12-17T11:13:16;61.53;;;24.60;;
35795;SDS011;21916;52.428;13.302;2022-12-17T11:16:23;64.75;;;25.15;;
35795;SDS011;21916;52.428;13.302;2022-12-17T11:22:00;58.60;;;24.58;;
35795;SDS011;21916;52.428;13.302;2022-12-17T11:27:44;64.70;;;26.88;;
35795;SDS011;21916;52.428;13.302;2022-12-17T11:30:54;63.42;;;26.45;;
35795;SDS011;21916;52.428;13.302;2022-12-17T11:33:53;67.63;;;25.77;;
35795;SDS011;21916;52.428;13.302;2022-12-17T11:37:29;59.00;;;25.20;;
35795;SDS011;21916;52.428;13.302;2022-12-17T11:39:57;55.58;;;24.08;;
35795;SDS011;21916;52.428;13.302;2022-12-17T11:42:57;62.63;;;24.67;;
35795;SDS011;21916;52.428;13.302;2022-12-17T11:48:44;60.25;;;22.33;;
35795;SDS011;21916;52.428;13.302;2022-12-17T11:51:38;56.88;;;23.05;;
35795;SDS011;21916;52.428;13.302;2022-12-17T11:54:37;58.13;;;23.95;;
35795;SDS011;21916;52.428;13.302;2022-12-17T11:57:50;57.13;;;24.55;;
35795;SDS011;21916;52.428;13.302;2022-12-17T12:00:54;58.35;;;21.73;;
35795;SDS011;21916;52.428;13.302;2022-12-17T12:04:01;59.33;;;22.48;;
35795;SDS011;21916;52.428;13.302;2022-12-17T12:10:02;65.75;;;23.52;;
35795;SDS011;21916;52.428;13.302;2022-12-17T12:16:10;64.47;;;25.60;;
35795;SDS011;21916;52.428;13.302;2022-12-17T12:19:13;51.78;;;22.02;;
35795;SDS011;21916;52.428;13.302;2022-12-17T12:28:36;80.50;;;24.77;;
35795;SDS011;21916;52.428;13.302;2022-12-17T12:31:57;60.60;;;23.40;;
35795;SDS011;21916;52.428;13.302;2022-12-17T12:34:49;69.43;;;24.73;;
35795;SDS011;21916;52.428;13.302;2022-12-17T12:37:35;56.47;;;21.83;;
35795;SDS011;21916;52.428;13.302;2022-12-17T12:43:24;67.85;;;25.42;;
35795;SDS011;21916;52.428;13.302;2022-12-17T12:46:29;70.90;;;25.10;;
35795;SDS011;21916;52.428;13.302;2022-12-17T12:49:30;68.18;;;26.65;;
35795;SDS011;21916;52.428;13.302;2022-12-17T12:52:23;73.93;;;26.13;;
35795;SDS011;21916;52.428;13.302;2022-12-17T12:55:10;66.13;;;25.05;;
35795;SDS011;21916;52.428;13.302;2022-12-17T12:57:57;67.28;;;25.38;;
35795;SDS011;21916;52.428;13.302;2022-12-17T13:11:54;66.95;;;25.92;;
35795;SDS011;21916;52.428;13.302;2022-12-17T13:15:08;57.42;;;20.92;;
35795;SDS011;21916;52.428;13.302;2022-12-17T13:19:43;58.00;;;24.17;;
35795;SDS011;21916;52.428;13.302;2022-12-17T13:24:41;73.07;;;27.33;;
35795;SDS011;21916;52.428;13.302;2022-12-17T13:27:30;60.13;;;24.15;;
35795;SDS011;21916;52.428;13.302;2022-12-17T13:38:26;65.93;;;24.92;;
35795;SDS011;21916;52.428;13.302;2022-12-17T13:41:05;65.90;;;24.73;;
35795;SDS011;21916;52.428;13.302;2022-12-17T13:43:45;66.40;;;25.92;;
35795;SDS011;21916;52.428;13.302;2022-12-17T13:48:51;62.20;;;24.75;;
35795;SDS011;21916;52.428;13.302;2022-12-17T13:51:22;66.25;;;25.92;;
35795;SDS011;21916;52.428;13.302;2022-12-17T13:53:57;57.22;;;22.13;;
35795;SDS011;21916;52.428;13.302;2022-12-17T13:56:29;64.32;;;23.20;;
35795;SDS011;21916;52.428;13.302;2022-12-17T13:58:58;62.30;;;26.27;;
35795;SDS011;21916;52.428;13.302;2022-12-17T14:01:26;69.82;;;26.42;;
35795;SDS011;21916;52.428;13.302;2022-12-17T14:03:57;60.97;;;23.65;;
35795;SDS011;21916;52.428;13.302;2022-12-17T14:06:26;59.65;;;24.65;;
35795;SDS011;21916;52.428;13.302;2022-12-17T14:08:56;50.80;;;19.50;;
35795;SDS011;21916;52.428;13.302;2022-12-17T14:11:23;65.65;;;25.73;;
35795;SDS011;21916;52.428;13.302;2022-12-17T14:17:03;71.68;;;25.38;;
35795;SDS011;21916;52.428;13.302;2022-12-17T14:19:30;68.03;;;26.35;;
35795;SDS011;21916;52.428;13.302;2022-12-17T14:21:57;71.20;;;28.50;;
35795;SDS011;21916;52.428;13.302;2022-12-17T14:24:25;78.05;;;29.10;;
35795;SDS011;21916;52.428;13.302;2022-12-17T14:26:54;74.63;;;28.33;;
35795;SDS011;21916;52.428;13.302;2022-12-17T14:29:22;70.30;;;25.35;;
35795;SDS011;21916;52.428;13.302;2022-12-17T14:31:53;58.90;;;22.73;;
35795;SDS011;21916;52.428;13.302;2022-12-17T14:34:21;66.13;;;24.98;;
35795;SDS011;21916;52.428;13.302;2022-12-17T14:36:52;64.22;;;24.15;;
35795;SDS011;21916;52.428;13.302;2022-12-17T14:39:30;56.70;;;22.08;;
35795;SDS011;21916;52.428;13.302;2022-12-17T14:41:57;74.38;;;27.15;;
35795;SDS011;21916;52.428;13.302;2022-12-17T14:47:20;76.85;;;27.80;;
35795;SDS011;21916;52.428;13.302;2022-12-17T14:54:57;75.85;;;27.42;;
35795;SDS011;21916;52.428;13.302;2022-12-17T14:57:24;84.47;;;28.90;;
35795;SDS011;21916;52.428;13.302;2022-12-17T14:59:50;74.75;;;29.10;;
35795;SDS011;21916;52.428;13.302;2022-12-17T15:02:26;81.57;;;29.80;;
35795;SDS011;21916;52.428;13.302;2022-12-17T15:04:55;82.00;;;29.67;;
35795;SDS011;21916;52.428;13.302;2022-12-17T15:07:24;72.18;;;28.77;;
35795;SDS011;21916;52.428;13.302;2022-12-17T15:09:52;78.57;;;29.23;;
35795;SDS011;21916;52.428;13.302;2022-12-17T15:12:19;57.05;;;21.75;;
35795;SDS011;21916;52.428;13.302;2022-12-17T15:14:46;65.93;;;25.42;;
35795;SDS011;21916;52.428;13.302;2022-12-17T15:17:12;79.18;;;29.08;;
35795;SDS011;21916;52.428;13.302;2022-12-17T15:19:38;75.03;;;28.48;;
35795;SDS011;21916;52.428;13.302;2022-12-17T15:22:05;77.28;;;28.25;;
35795;SDS011;21916;52.428;13.302;2022-12-17T15:24:33;84.65;;;33.22;;
35795;SDS011;21916;52.428;13.302;2022-12-17T15:26:59;75.18;;;30.73;;
35795;SDS011;21916;52.428;13.302;2022-12-17T15:29:25;98.78;;;34.55;;
35795;SDS011;21916;52.428;13.302;2022-12-17T15:31:51;83.03;;;30.60;;
35795;SDS011;21916;52.428;13.302;2022-12-17T15:34:16;86.75;;;32.28;;
35795;SDS011;21916;52.428;13.302;2022-12-17T15:36:42;73.28;;;28.65;;
35795;SDS011;21916;52.428;13.302;2022-12-17T15:39:09;83.72;;;27.88;;
35795;SDS011;21916;52.428;13.302;2022-12-17T15:41:35;79.72;;;29.42;;
35795;SDS011;21916;52.428;13.302;2022-12-17T15:44:19;77.72;;;28.67;;
35795;SDS011;21916;52.428;13.302;2022-12-17T15:46:45;75.13;;;27.35;;
35795;SDS011;21916;52.428;13.302;2022-12-17T15:49:11;63.70;;;26.70;;
35795;SDS011;21916;52.428;13.302;2022-12-17T15:51:37;67.75;;;24.70;;
35795;SDS011;21916;52.428;13.302;2022-12-17T15:54:03;70.20;;;27.20;;
35795;SDS011;21916;52.428;13.302;2022-12-17T15:56:28;71.03;;;24.95;;
35795;SDS011;21916;52.428;13.302;2022-12-17T15:58:57;72.40;;;27.63;;
35795;SDS011;21916;52.428;13.302;2022-12-17T16:01:23;78.70;;;27.20;;
35795;SDS011;21916;52.428;13.302;2022-12-17T16:03:49;85.07;;;29.60;;
35795;SDS011;21916;52.428;13.302;2022-12-17T16:06:15;75.68;;;28.70;;
35795;SDS011;21916;52.428;13.302;2022-12-17T16:08:41;87.50;;;29.92;;
35795;SDS011;21916;52.428;13.302;2022-12-17T16:11:07;79.53;;;30.92;;
35795;SDS011;21916;52.428;13.302;2022-12-17T16:13:35;87.18;;;31.70;;
35795;SDS011;21916;52.428;13.302;2022-12-17T16:16:03;95.45;;;32.58;;
35795;SDS011;21916;52.428;13.302;2022-12-17T16:18:30;84.13;;;31.58;;
35795;SDS011;21916;52.428;13.302;2022-12-17T16:21:06;86.93;;;30.75;;
35795;SDS011;21916;52.428;13.302;2022-12-17T16:23:32;79.93;;;30.23;;
35795;SDS011;21916;52.428;13.302;2022-12-17T16:25:59;85.15;;;27.42;;
35795;SDS011;21916;52.428;13.302;2022-12-17T16:28:26;80.32;;;28.30;;
35795;SDS011;21916;52.428;13.302;2022-12-17T16:30:59;78.47;;;28.38;;
35795;SDS011;21916;52.428;13.302;2022-12-17T16:33:26;83.68;;;29.35;;
35795;SDS011;21916;52.428;13.302;2022-12-17T16:35:56;77.40;;;25.95;;
35795;SDS011;21916;52.428;13.302;2022-12-17T16:38:21;74.88;;;25.05;;
35795;SDS011;21916;52.428;13.302;2022-12-17T16:40:47;78.10;;;27.00;;
35795;SDS011;21916;52.428;13.302;2022-12-17T16:43:13;75.00;;;27.30;;
35795;SDS011;21916;52.428;13.302;2022-12-17T16:45:45;79.55;;;27.60;;
35795;SDS011;21916;52.428;13.302;2022-12-17T16:48:13;72.88;;;25.75;;
35795;SDS011;21916;52.428;13.302;2022-12-17T16:50:39;80.63;;;29.98;;
35795;SDS011;21916;52.428;13.302;2022-12-17T16:53:05;81.43;;;28.42;;
35795;SDS011;21916;52.428;13.302;2022-12-17T16:55:30;81.18;;;27.15;;
35795;SDS011;21916;52.428;13.302;2022-12-17T16:57:56;71.68;;;27.10;;
35795;SDS011;21916;52.428;13.302;2022-12-17T17:00:22;80.50;;;26.85;;
35795;SDS011;21916;52.428;13.302;2022-12-17T17:02:48;72.00;;;25.00;;
35795;SDS011;21916;52.428;13.302;2022-12-17T17:05:13;69.30;;;25.45;;